sensor_id;sensor_type;location;lat;lon;timestamp;P1;durP1;ratioP1;P2;durP2;ratioP2
78508;SDS011;67802;50.846;7.958;2023-04-25T00:01:20;1.52;;;0.80;;
78508;SDS011;67802;50.846;7.958;2023-04-25T00:03:46;2.35;;;0.90;;
78508;SDS011;67802;50.846;7.958;2023-04-25T00:06:12;2.55;;;0.98;;
78508;SDS011;67802;50.846;7.958;2023-04-25T00:08:37;1.60;;;0.73;;
78508;SDS011;67802;50.846;7.958;2023-04-25T00:11:02;1.60;;;0.85;;
78508;SDS011;67802;50.846;7.958;2023-04-25T00:13:28;3.15;;;0.95;;
78508;SDS011;67802;50.846;7.958;2023-04-25T00:15:53;2.97;;;1.00;;
78508;SDS011;67802;50.846;7.958;2023-04-25T00:18:19;2.35;;;0.90;;
78508;SDS011;67802;50.846;7.958;2023-04-25T00:20:45;2.65;;;0.98;;
78508;SDS011;67802;50.846;7.958;2023-04-25T00:23:17;1.25;;;0.75;;
78508;SDS011;67802;50.846;7.958;2023-04-25T00:25:46;1.73;;;0.82;;
78508;SDS011;67802;50.846;7.958;2023-04-25T00:28:12;1.80;;;0.90;;
78508;SDS011;67802;50.846;7.958;2023-04-25T00:30:38;3.35;;;1.20;;
78508;SDS011;67802;50.846;7.958;2023-04-25T00:33:04;1.70;;;0.73;;
78508;SDS011;67802;50.846;7.958;2023-04-25T00:35:30;3.47;;;0.93;;
78508;SDS011;67802;50.846;7.958;2023-04-25T00:37:55;3.22;;;1.33;;
78508;SDS011;67802;50.846;7.958;2023-04-25T00:40:21;2.20;;;0.90;;
78508;SDS011;67802;50.846;7.958;2023-04-25T00:42:46;2.03;;;0.90;;
78508;SDS011;67802;50.846;7.958;2023-04-25T00:45:13;2.83;;;1.20;;
78508;SDS011;67802;50.846;7.958;2023-04-25T00:47:42;2.88;;;0.80;;
78508;SDS011;67802;50.846;7.958;2023-04-25T00:50:08;3.05;;;0.90;;
78508;SDS011;67802;50.846;7.958;2023-04-25T00:52:34;3.30;;;1.10;;
78508;SDS011;67802;50.846;7.958;2023-04-25T00:55:00;2.28;;;0.93;;
78508;SDS011;67802;50.846;7.958;2023-04-25T00:57:26;2.10;;;1.00;;
78508;SDS011;67802;50.846;7.958;2023-04-25T00:59:51;4.28;;;1.00;;
78508;SDS011;67802;50.846;7.958;2023-04-25T01:02:18;2.38;;;0.93;;
78508;SDS011;67802;50.846;7.958;2023-04-25T01:04:45;1.90;;;0.80;;
78508;SDS011;67802;50.846;7.958;2023-04-25T01:07:12;2.03;;;0.93;;
78508;SDS011;67802;50.846;7.958;2023-04-25T01:09:38;2.42;;;0.80;;
78508;SDS011;67802;50.846;7.958;2023-04-25T01:12:03;1.77;;;0.82;;
78508;SDS011;67802;50.846;7.958;2023-04-25T01:14:29;2.33;;;0.95;;
78508;SDS011;67802;50.846;7.958;2023-04-25T01:16:55;2.40;;;0.75;;
78508;SDS011;67802;50.846;7.958;2023-04-25T01:19:20;1.55;;;0.80;;
78508;SDS011;67802;50.846;7.958;2023-04-25T01:21:46;2.42;;;0.80;;
78508;SDS011;67802;50.846;7.958;2023-04-25T01:24:12;2.72;;;0.82;;
78508;SDS011;67802;50.846;7.958;2023-04-25T01:26:38;1.80;;;0.90;;
78508;SDS011;67802;50.846;7.958;2023-04-25T01:29:05;2.03;;;0.88;;
78508;SDS011;67802;50.846;7.958;2023-04-25T01:31:32;1.88;;;1.00;;
78508;SDS011;67802;50.846;7.958;2023-04-25T01:33:59;2.83;;;0.90;;
78508;SDS011;67802;50.846;7.958;2023-04-25T01:36:25;2.25;;;1.02;;
78508;SDS011;67802;50.846;7.958;2023-04-25T01:38:52;2.30;;;0.88;;
78508;SDS011;67802;50.846;7.958;2023-04-25T01:41:17;1.20;;;0.80;;
78508;SDS011;67802;50.846;7.958;2023-04-25T01:43:43;2.75;;;0.98;;
78508;SDS011;67802;50.846;7.958;2023-04-25T01:46:09;2.88;;;1.10;;
78508;SDS011;67802;50.846;7.958;2023-04-25T01:48:37;4.35;;;1.02;;
78508;SDS011;67802;50.846;7.958;2023-04-25T01:51:02;2.50;;;0.90;;
78508;SDS011;67802;50.846;7.958;2023-04-25T01:53:27;2.67;;;1.02;;
78508;SDS011;67802;50.846;7.958;2023-04-25T01:55:53;2.58;;;1.00;;
78508;SDS011;67802;50.846;7.958;2023-04-25T01:58:18;2.45;;;0.90;;
78508;SDS011;67802;50.846;7.958;2023-04-25T02:00:44;2.20;;;0.98;;
78508;SDS011;67802;50.846;7.958;2023-04-25T02:03:09;2.85;;;1.00;;
78508;SDS011;67802;50.846;7.958;2023-04-25T02:05:35;2.92;;;1.00;;
78508;SDS011;67802;50.846;7.958;2023-04-25T02:08:01;2.70;;;1.00;;
78508;SDS011;67802;50.846;7.958;2023-04-25T02:10:28;2.60;;;1.00;;
78508;SDS011;67802;50.846;7.958;2023-04-25T02:12:53;1.92;;;0.95;;
78508;SDS011;67802;50.846;7.958;2023-04-25T02:15:18;2.97;;;1.00;;
78508;SDS011;67802;50.846;7.958;2023-04-25T02:17:44;2.70;;;0.90;;
78508;SDS011;67802;50.846;7.958;2023-04-25T02:20:10;3.42;;;1.15;;
78508;SDS011;67802;50.846;7.958;2023-04-25T02:22:35;2.35;;;1.00;;
78508;SDS011;67802;50.846;7.958;2023-04-25T02:25:01;2.67;;;1.13;;
78508;SDS011;67802;50.846;7.958;2023-04-25T02:27:29;2.75;;;1.02;;
78508;SDS011;67802;50.846;7.958;2023-04-25T02:29:55;2.50;;;0.90;;
78508;SDS011;67802;50.846;7.958;2023-04-25T02:32:20;2.45;;;1.10;;
78508;SDS011;67802;50.846;7.958;2023-04-25T02:34:46;3.50;;;1.27;;
78508;SDS011;67802;50.846;7.958;2023-04-25T02:37:11;4.87;;;0.90;;
78508;SDS011;67802;50.846;7.958;2023-04-25T02:39:36;3.25;;;1.10;;
78508;SDS011;67802;50.846;7.958;2023-04-25T02:42:01;1.77;;;0.83;;
78508;SDS011;67802;50.846;7.958;2023-04-25T02:44:27;2.95;;;1.10;;
78508;SDS011;67802;50.846;7.958;2023-04-25T02:46:52;3.43;;;1.10;;
78508;SDS011;67802;50.846;7.958;2023-04-25T02:49:18;2.95;;;1.10;;
78508;SDS011;67802;50.846;7.958;2023-04-25T02:51:43;2.03;;;0.90;;
78508;SDS011;67802;50.846;7.958;2023-04-25T02:54:08;3.05;;;1.10;;
78508;SDS011;67802;50.846;7.958;2023-04-25T02:56:34;2.67;;;1.10;;
78508;SDS011;67802;50.846;7.958;2023-04-25T02:58:59;3.25;;;0.98;;
78508;SDS011;67802;50.846;7.958;2023-04-25T03:01:24;2.43;;;0.90;;
78508;SDS011;67802;50.846;7.958;2023-04-25T03:03:50;2.10;;;0.93;;
78508;SDS011;67802;50.846;7.958;2023-04-25T03:06:15;3.03;;;1.10;;
78508;SDS011;67802;50.846;7.958;2023-04-25T03:08:40;3.47;;;1.10;;
78508;SDS011;67802;50.846;7.958;2023-04-25T03:11:06;2.90;;;0.95;;
78508;SDS011;67802;50.846;7.958;2023-04-25T03:13:31;3.63;;;1.08;;
78508;SDS011;67802;50.846;7.958;2023-04-25T03:15:56;3.57;;;1.20;;
78508;SDS011;67802;50.846;7.958;2023-04-25T03:18:22;3.60;;;1.00;;
78508;SDS011;67802;50.846;7.958;2023-04-25T03:20:47;4.53;;;1.00;;
78508;SDS011;67802;50.846;7.958;2023-04-25T03:23:12;3.60;;;1.08;;
78508;SDS011;67802;50.846;7.958;2023-04-25T03:25:38;2.55;;;1.00;;
78508;SDS011;67802;50.846;7.958;2023-04-25T03:28:03;3.17;;;1.00;;
78508;SDS011;67802;50.846;7.958;2023-04-25T03:30:28;3.13;;;1.00;;
78508;SDS011;67802;50.846;7.958;2023-04-25T03:32:53;3.45;;;1.05;;
78508;SDS011;67802;50.846;7.958;2023-04-25T03:35:19;2.72;;;0.93;;
78508;SDS011;67802;50.846;7.958;2023-04-25T03:37:45;2.60;;;1.00;;
78508;SDS011;67802;50.846;7.958;2023-04-25T03:40:10;3.30;;;1.05;;
78508;SDS011;67802;50.846;7.958;2023-04-25T03:42:36;2.47;;;1.00;;
78508;SDS011;67802;50.846;7.958;2023-04-25T03:45:01;5.15;;;1.00;;
78508;SDS011;67802;50.846;7.958;2023-04-25T03:47:27;3.15;;;1.10;;
78508;SDS011;67802;50.846;7.958;2023-04-25T03:49:52;2.30;;;1.00;;
78508;SDS011;67802;50.846;7.958;2023-04-25T03:52:18;3.47;;;1.00;;
78508;SDS011;67802;50.846;7.958;2023-04-25T03:54:43;2.72;;;1.00;;
78508;SDS011;67802;50.846;7.958;2023-04-25T03:57:08;2.53;;;0.90;;
78508;SDS011;67802;50.846;7.958;2023-04-25T03:59:33;3.77;;;0.90;;
78508;SDS011;67802;50.846;7.958;2023-04-25T04:01:59;1.83;;;0.88;;
78508;SDS011;67802;50.846;7.958;2023-04-25T04:04:24;3.30;;;0.93;;
78508;SDS011;67802;50.846;7.958;2023-04-25T04:06:49;3.50;;;1.00;;
78508;SDS011;67802;50.846;7.958;2023-04-25T04:09:15;3.67;;;1.30;;
78508;SDS011;67802;50.846;7.958;2023-04-25T04:11:41;2.83;;;0.90;;
78508;SDS011;67802;50.846;7.958;2023-04-25T04:14:06;2.97;;;1.10;;
78508;SDS011;67802;50.846;7.958;2023-04-25T04:16:32;3.10;;;1.00;;
78508;SDS011;67802;50.846;7.958;2023-04-25T04:18:57;4.18;;;1.20;;
78508;SDS011;67802;50.846;7.958;2023-04-25T04:21:22;2.80;;;0.98;;
78508;SDS011;67802;50.846;7.958;2023-04-25T04:23:48;2.28;;;1.00;;
78508;SDS011;67802;50.846;7.958;2023-04-25T04:26:13;2.67;;;0.93;;
78508;SDS011;67802;50.846;7.958;2023-04-25T04:28:41;2.60;;;0.93;;
78508;SDS011;67802;50.846;7.958;2023-04-25T04:31:07;3.33;;;1.05;;
78508;SDS011;67802;50.846;7.958;2023-04-25T04:33:32;2.88;;;1.13;;
78508;SDS011;67802;50.846;7.958;2023-04-25T04:35:57;3.53;;;1.13;;
78508;SDS011;67802;50.846;7.958;2023-04-25T04:38:23;2.65;;;1.05;;
78508;SDS011;67802;50.846;7.958;2023-04-25T04:40:50;2.78;;;1.10;;
78508;SDS011;67802;50.846;7.958;2023-04-25T04:43:15;3.78;;;1.10;;
78508;SDS011;67802;50.846;7.958;2023-04-25T04:45:42;2.35;;;1.00;;
78508;SDS011;67802;50.846;7.958;2023-04-25T04:48:08;2.97;;;1.20;;
78508;SDS011;67802;50.846;7.958;2023-04-25T04:50:33;3.25;;;1.20;;
78508;SDS011;67802;50.846;7.958;2023-04-25T04:53:00;2.55;;;1.00;;
78508;SDS011;67802;50.846;7.958;2023-04-25T04:55:26;1.88;;;0.90;;
78508;SDS011;67802;50.846;7.958;2023-04-25T04:57:52;2.40;;;1.00;;
78508;SDS011;67802;50.846;7.958;2023-04-25T05:00:17;2.30;;;0.93;;
78508;SDS011;67802;50.846;7.958;2023-04-25T05:02:43;4.55;;;1.30;;
78508;SDS011;67802;50.846;7.958;2023-04-25T05:05:08;2.42;;;1.10;;
78508;SDS011;67802;50.846;7.958;2023-04-25T05:07:33;3.53;;;1.10;;
78508;SDS011;67802;50.846;7.958;2023-04-25T05:09:59;3.55;;;1.10;;
78508;SDS011;67802;50.846;7.958;2023-04-25T05:12:24;3.47;;;1.20;;
78508;SDS011;67802;50.846;7.958;2023-04-25T05:14:50;2.35;;;1.20;;
78508;SDS011;67802;50.846;7.958;2023-04-25T05:17:15;3.28;;;1.20;;
78508;SDS011;67802;50.846;7.958;2023-04-25T05:19:40;5.20;;;1.27;;
78508;SDS011;67802;50.846;7.958;2023-04-25T05:22:06;3.55;;;1.10;;
78508;SDS011;67802;50.846;7.958;2023-04-25T05:24:31;2.75;;;1.30;;
78508;SDS011;67802;50.846;7.958;2023-04-25T05:26:56;3.60;;;1.08;;
78508;SDS011;67802;50.846;7.958;2023-04-25T05:29:21;2.05;;;1.00;;
78508;SDS011;67802;50.846;7.958;2023-04-25T05:31:47;2.90;;;1.10;;
78508;SDS011;67802;50.846;7.958;2023-04-25T05:34:13;3.53;;;1.30;;
78508;SDS011;67802;50.846;7.958;2023-04-25T05:36:38;3.15;;;1.25;;
78508;SDS011;67802;50.846;7.958;2023-04-25T05:39:03;4.30;;;1.30;;
78508;SDS011;67802;50.846;7.958;2023-04-25T05:41:29;3.42;;;1.20;;
78508;SDS011;67802;50.846;7.958;2023-04-25T05:43:54;4.00;;;1.20;;
78508;SDS011;67802;50.846;7.958;2023-04-25T05:46:20;3.30;;;1.30;;
78508;SDS011;67802;50.846;7.958;2023-04-25T05:48:45;3.13;;;1.20;;
78508;SDS011;67802;50.846;7.958;2023-04-25T05:51:10;4.05;;;1.23;;
78508;SDS011;67802;50.846;7.958;2023-04-25T05:53:36;3.77;;;1.20;;
78508;SDS011;67802;50.846;7.958;2023-04-25T05:56:01;3.60;;;1.20;;
78508;SDS011;67802;50.846;7.958;2023-04-25T05:58:26;6.68;;;1.42;;
78508;SDS011;67802;50.846;7.958;2023-04-25T06:00:52;3.10;;;1.23;;
78508;SDS011;67802;50.846;7.958;2023-04-25T06:03:17;3.05;;;1.08;;
78508;SDS011;67802;50.846;7.958;2023-04-25T06:05:42;3.08;;;1.10;;
78508;SDS011;67802;50.846;7.958;2023-04-25T06:08:08;3.03;;;1.20;;
78508;SDS011;67802;50.846;7.958;2023-04-25T06:10:34;2.42;;;1.10;;
78508;SDS011;67802;50.846;7.958;2023-04-25T06:13:00;4.45;;;1.20;;
78508;SDS011;67802;50.846;7.958;2023-04-25T06:15:26;3.03;;;1.17;;
78508;SDS011;67802;50.846;7.958;2023-04-25T06:17:51;3.22;;;1.13;;
78508;SDS011;67802;50.846;7.958;2023-04-25T06:20:16;3.40;;;1.10;;
78508;SDS011;67802;50.846;7.958;2023-04-25T06:22:41;1.92;;;1.00;;
78508;SDS011;67802;50.846;7.958;2023-04-25T06:25:07;2.47;;;1.10;;
78508;SDS011;67802;50.846;7.958;2023-04-25T06:27:33;3.80;;;1.40;;
78508;SDS011;67802;50.846;7.958;2023-04-25T06:29:58;2.50;;;1.05;;
78508;SDS011;67802;50.846;7.958;2023-04-25T06:32:24;3.78;;;1.40;;
78508;SDS011;67802;50.846;7.958;2023-04-25T06:34:50;4.15;;;1.30;;
78508;SDS011;67802;50.846;7.958;2023-04-25T06:37:15;3.10;;;1.20;;
78508;SDS011;67802;50.846;7.958;2023-04-25T06:39:40;4.53;;;1.30;;
78508;SDS011;67802;50.846;7.958;2023-04-25T06:42:06;3.35;;;1.30;;
78508;SDS011;67802;50.846;7.958;2023-04-25T06:44:31;2.80;;;1.10;;
78508;SDS011;67802;50.846;7.958;2023-04-25T06:46:56;2.77;;;1.20;;
78508;SDS011;67802;50.846;7.958;2023-04-25T06:49:22;3.07;;;1.30;;
78508;SDS011;67802;50.846;7.958;2023-04-25T06:51:47;2.58;;;1.05;;
78508;SDS011;67802;50.846;7.958;2023-04-25T06:54:12;3.40;;;1.20;;
78508;SDS011;67802;50.846;7.958;2023-04-25T06:56:38;3.40;;;1.20;;
78508;SDS011;67802;50.846;7.958;2023-04-25T06:59:03;3.35;;;1.15;;
78508;SDS011;67802;50.846;7.958;2023-04-25T07:01:28;3.13;;;1.20;;
78508;SDS011;67802;50.846;7.958;2023-04-25T07:03:54;3.40;;;1.30;;
78508;SDS011;67802;50.846;7.958;2023-04-25T07:06:19;2.22;;;1.17;;
78508;SDS011;67802;50.846;7.958;2023-04-25T07:08:45;2.83;;;1.13;;
78508;SDS011;67802;50.846;7.958;2023-04-25T07:11:10;3.10;;;1.23;;
78508;SDS011;67802;50.846;7.958;2023-04-25T07:13:36;3.47;;;1.20;;
78508;SDS011;67802;50.846;7.958;2023-04-25T07:16:01;3.93;;;1.30;;
78508;SDS011;67802;50.846;7.958;2023-04-25T07:18:26;3.33;;;1.23;;
78508;SDS011;67802;50.846;7.958;2023-04-25T07:20:52;3.92;;;1.20;;
78508;SDS011;67802;50.846;7.958;2023-04-25T07:23:17;2.92;;;1.17;;
78508;SDS011;67802;50.846;7.958;2023-04-25T07:25:42;5.13;;;1.70;;
78508;SDS011;67802;50.846;7.958;2023-04-25T07:28:08;2.50;;;1.20;;
78508;SDS011;67802;50.846;7.958;2023-04-25T07:30:33;4.32;;;1.63;;
78508;SDS011;67802;50.846;7.958;2023-04-25T07:32:59;4.60;;;1.67;;
78508;SDS011;67802;50.846;7.958;2023-04-25T07:35:25;3.80;;;1.40;;
78508;SDS011;67802;50.846;7.958;2023-04-25T07:37:50;3.10;;;1.45;;
78508;SDS011;67802;50.846;7.958;2023-04-25T07:40:16;4.47;;;1.58;;
78508;SDS011;67802;50.846;7.958;2023-04-25T07:42:41;5.38;;;1.58;;
78508;SDS011;67802;50.846;7.958;2023-04-25T07:45:06;3.97;;;1.50;;
78508;SDS011;67802;50.846;7.958;2023-04-25T07:47:32;4.45;;;1.70;;
78508;SDS011;67802;50.846;7.958;2023-04-25T07:49:57;4.40;;;1.33;;
78508;SDS011;67802;50.846;7.958;2023-04-25T07:52:23;2.70;;;1.20;;
78508;SDS011;67802;50.846;7.958;2023-04-25T07:54:48;3.75;;;1.40;;
78508;SDS011;67802;50.846;7.958;2023-04-25T07:57:13;3.63;;;1.27;;
78508;SDS011;67802;50.846;7.958;2023-04-25T07:59:39;7.05;;;1.30;;
78508;SDS011;67802;50.846;7.958;2023-04-25T08:02:04;3.47;;;1.30;;
78508;SDS011;67802;50.846;7.958;2023-04-25T08:04:30;3.35;;;1.20;;
78508;SDS011;67802;50.846;7.958;2023-04-25T08:06:55;3.55;;;1.40;;
78508;SDS011;67802;50.846;7.958;2023-04-25T08:09:21;3.45;;;1.52;;
78508;SDS011;67802;50.846;7.958;2023-04-25T08:11:47;3.08;;;1.33;;
78508;SDS011;67802;50.846;7.958;2023-04-25T08:14:12;4.38;;;1.45;;
78508;SDS011;67802;50.846;7.958;2023-04-25T08:16:38;3.85;;;1.45;;
78508;SDS011;67802;50.846;7.958;2023-04-25T08:19:04;3.85;;;1.40;;
78508;SDS011;67802;50.846;7.958;2023-04-25T08:21:30;3.33;;;1.40;;
78508;SDS011;67802;50.846;7.958;2023-04-25T08:23:56;3.50;;;1.20;;
78508;SDS011;67802;50.846;7.958;2023-04-25T08:26:23;2.60;;;1.20;;
78508;SDS011;67802;50.846;7.958;2023-04-25T08:28:48;4.07;;;1.30;;
78508;SDS011;67802;50.846;7.958;2023-04-25T08:31:13;3.95;;;1.35;;
78508;SDS011;67802;50.846;7.958;2023-04-25T08:33:39;3.30;;;1.30;;
78508;SDS011;67802;50.846;7.958;2023-04-25T08:36:05;6.03;;;1.40;;
78508;SDS011;67802;50.846;7.958;2023-04-25T08:38:30;5.25;;;1.30;;
78508;SDS011;67802;50.846;7.958;2023-04-25T08:40:56;4.75;;;1.50;;
78508;SDS011;67802;50.846;7.958;2023-04-25T08:43:23;4.28;;;1.40;;
78508;SDS011;67802;50.846;7.958;2023-04-25T08:45:49;7.38;;;1.40;;
78508;SDS011;67802;50.846;7.958;2023-04-25T08:48:18;7.28;;;1.80;;
78508;SDS011;67802;50.846;7.958;2023-04-25T08:50:50;5.00;;;1.53;;
78508;SDS011;67802;50.846;7.958;2023-04-25T08:53:20;5.07;;;1.30;;
78508;SDS011;67802;50.846;7.958;2023-04-25T08:55:50;3.83;;;1.48;;
78508;SDS011;67802;50.846;7.958;2023-04-25T08:58:18;4.80;;;1.58;;
78508;SDS011;67802;50.846;7.958;2023-04-25T09:00:45;7.00;;;1.30;;
78508;SDS011;67802;50.846;7.958;2023-04-25T09:03:11;6.03;;;1.40;;
78508;SDS011;67802;50.846;7.958;2023-04-25T09:05:37;4.47;;;1.40;;
78508;SDS011;67802;50.846;7.958;2023-04-25T09:08:05;5.30;;;1.35;;
78508;SDS011;67802;50.846;7.958;2023-04-25T09:10:31;5.28;;;1.50;;
78508;SDS011;67802;50.846;7.958;2023-04-25T09:15:31;5.43;;;1.30;;
78508;SDS011;67802;50.846;7.958;2023-04-25T09:17:58;3.53;;;1.30;;
78508;SDS011;67802;50.846;7.958;2023-04-25T09:20:24;8.05;;;1.30;;
78508;SDS011;67802;50.846;7.958;2023-04-25T09:23:00;4.32;;;1.40;;
78508;SDS011;67802;50.846;7.958;2023-04-25T09:25:27;3.50;;;1.40;;
78508;SDS011;67802;50.846;7.958;2023-04-25T09:28:00;3.65;;;1.20;;
78508;SDS011;67802;50.846;7.958;2023-04-25T09:30:30;3.80;;;1.13;;
78508;SDS011;67802;50.846;7.958;2023-04-25T09:32:56;4.90;;;1.52;;
78508;SDS011;67802;50.846;7.958;2023-04-25T09:35:28;3.30;;;1.13;;
78508;SDS011;67802;50.846;7.958;2023-04-25T09:37:53;8.83;;;1.50;;
78508;SDS011;67802;50.846;7.958;2023-04-25T09:40:19;3.03;;;0.90;;
78508;SDS011;67802;50.846;7.958;2023-04-25T09:42:44;3.95;;;1.40;;
78508;SDS011;67802;50.846;7.958;2023-04-25T09:45:12;4.85;;;1.45;;
78508;SDS011;67802;50.846;7.958;2023-04-25T09:47:38;3.55;;;1.30;;
78508;SDS011;67802;50.846;7.958;2023-04-25T09:50:04;3.60;;;1.30;;
78508;SDS011;67802;50.846;7.958;2023-04-25T09:52:40;4.55;;;1.38;;
78508;SDS011;67802;50.846;7.958;2023-04-25T09:55:05;4.22;;;1.30;;
78508;SDS011;67802;50.846;7.958;2023-04-25T09:57:31;4.03;;;1.40;;
78508;SDS011;67802;50.846;7.958;2023-04-25T09:59:56;2.63;;;1.00;;
78508;SDS011;67802;50.846;7.958;2023-04-25T10:02:25;2.92;;;1.20;;
78508;SDS011;67802;50.846;7.958;2023-04-25T10:04:52;4.80;;;1.30;;
78508;SDS011;67802;50.846;7.958;2023-04-25T10:07:20;3.75;;;1.40;;
78508;SDS011;67802;50.846;7.958;2023-04-25T10:09:50;2.80;;;1.23;;
78508;SDS011;67802;50.846;7.958;2023-04-25T10:12:22;3.65;;;1.25;;
78508;SDS011;67802;50.846;7.958;2023-04-25T10:14:48;5.72;;;1.50;;
78508;SDS011;67802;50.846;7.958;2023-04-25T10:17:13;3.40;;;1.25;;
78508;SDS011;67802;50.846;7.958;2023-04-25T10:19:39;2.92;;;1.10;;
78508;SDS011;67802;50.846;7.958;2023-04-25T10:22:07;2.83;;;1.20;;
78508;SDS011;67802;50.846;7.958;2023-04-25T10:24:36;3.45;;;1.23;;
78508;SDS011;67802;50.846;7.958;2023-04-25T10:27:03;3.72;;;1.33;;
78508;SDS011;67802;50.846;7.958;2023-04-25T10:29:30;4.20;;;1.17;;
78508;SDS011;67802;50.846;7.958;2023-04-25T10:31:55;6.22;;;1.50;;
78508;SDS011;67802;50.846;7.958;2023-04-25T10:34:37;4.07;;;1.38;;
78508;SDS011;67802;50.846;7.958;2023-04-25T10:37:12;3.83;;;1.40;;
78508;SDS011;67802;50.846;7.958;2023-04-25T10:39:38;3.85;;;1.30;;
78508;SDS011;67802;50.846;7.958;2023-04-25T10:42:05;2.97;;;1.20;;
78508;SDS011;67802;50.846;7.958;2023-04-25T10:44:32;4.38;;;1.40;;
78508;SDS011;67802;50.846;7.958;2023-04-25T10:46:59;5.65;;;1.30;;
78508;SDS011;67802;50.846;7.958;2023-04-25T10:49:29;3.13;;;1.30;;
78508;SDS011;67802;50.846;7.958;2023-04-25T10:54:47;4.70;;;1.40;;
78508;SDS011;67802;50.846;7.958;2023-04-25T10:57:30;4.68;;;1.33;;
78508;SDS011;67802;50.846;7.958;2023-04-25T11:00:06;3.55;;;1.17;;
78508;SDS011;67802;50.846;7.958;2023-04-25T11:02:38;4.03;;;1.10;;
78508;SDS011;67802;50.846;7.958;2023-04-25T11:05:07;3.47;;;1.25;;
78508;SDS011;67802;50.846;7.958;2023-04-25T11:07:37;4.10;;;1.40;;
78508;SDS011;67802;50.846;7.958;2023-04-25T11:10:04;3.80;;;1.20;;
78508;SDS011;67802;50.846;7.958;2023-04-25T11:12:30;2.88;;;1.20;;
78508;SDS011;67802;50.846;7.958;2023-04-25T11:15:03;5.15;;;1.48;;
78508;SDS011;67802;50.846;7.958;2023-04-25T11:17:30;2.78;;;1.13;;
78508;SDS011;67802;50.846;7.958;2023-04-25T11:19:55;3.92;;;1.23;;
78508;SDS011;67802;50.846;7.958;2023-04-25T11:22:21;3.78;;;1.15;;
78508;SDS011;67802;50.846;7.958;2023-04-25T11:24:47;3.50;;;1.05;;
78508;SDS011;67802;50.846;7.958;2023-04-25T11:27:13;5.18;;;1.40;;
78508;SDS011;67802;50.846;7.958;2023-04-25T11:29:38;4.97;;;1.42;;
78508;SDS011;67802;50.846;7.958;2023-04-25T11:32:04;3.60;;;1.30;;
78508;SDS011;67802;50.846;7.958;2023-04-25T11:34:30;3.35;;;1.20;;
78508;SDS011;67802;50.846;7.958;2023-04-25T11:36:56;3.00;;;1.10;;
78508;SDS011;67802;50.846;7.958;2023-04-25T11:39:21;2.60;;;1.13;;
78508;SDS011;67802;50.846;7.958;2023-04-25T11:41:49;4.78;;;1.30;;
78508;SDS011;67802;50.846;7.958;2023-04-25T11:44:15;4.90;;;1.30;;
78508;SDS011;67802;50.846;7.958;2023-04-25T11:46:42;4.97;;;1.30;;
78508;SDS011;67802;50.846;7.958;2023-04-25T11:49:07;2.88;;;1.10;;
78508;SDS011;67802;50.846;7.958;2023-04-25T11:51:39;3.30;;;1.10;;
78508;SDS011;67802;50.846;7.958;2023-04-25T11:54:05;2.72;;;0.90;;
78508;SDS011;67802;50.846;7.958;2023-04-25T11:56:31;4.25;;;1.38;;
78508;SDS011;67802;50.846;7.958;2023-04-25T11:59:03;4.38;;;0.95;;
78508;SDS011;67802;50.846;7.958;2023-04-25T12:01:34;2.60;;;1.05;;
78508;SDS011;67802;50.846;7.958;2023-04-25T12:04:15;2.67;;;1.00;;
78508;SDS011;67802;50.846;7.958;2023-04-25T12:06:42;3.22;;;1.20;;
78508;SDS011;67802;50.846;7.958;2023-04-25T12:09:10;2.58;;;1.00;;
78508;SDS011;67802;50.846;7.958;2023-04-25T12:11:44;3.05;;;1.05;;
78508;SDS011;67802;50.846;7.958;2023-04-25T12:14:11;3.13;;;1.13;;
78508;SDS011;67802;50.846;7.958;2023-04-25T12:16:44;2.53;;;1.00;;
78508;SDS011;67802;50.846;7.958;2023-04-25T12:19:13;1.83;;;0.90;;
78508;SDS011;67802;50.846;7.958;2023-04-25T12:21:40;3.35;;;1.05;;
78508;SDS011;67802;50.846;7.958;2023-04-25T12:26:54;2.92;;;1.00;;
78508;SDS011;67802;50.846;7.958;2023-04-25T12:29:25;4.25;;;1.20;;
78508;SDS011;67802;50.846;7.958;2023-04-25T12:31:51;4.45;;;1.10;;
78508;SDS011;67802;50.846;7.958;2023-04-25T12:34:18;2.60;;;0.90;;
78508;SDS011;67802;50.846;7.958;2023-04-25T12:36:44;2.42;;;1.00;;
78508;SDS011;67802;50.846;7.958;2023-04-25T12:41:42;2.30;;;1.02;;
78508;SDS011;67802;50.846;7.958;2023-04-25T12:44:09;3.47;;;1.10;;
78508;SDS011;67802;50.846;7.958;2023-04-25T12:46:35;3.45;;;1.20;;
78508;SDS011;67802;50.846;7.958;2023-04-25T12:49:01;4.32;;;1.05;;
78508;SDS011;67802;50.846;7.958;2023-04-25T12:51:28;3.85;;;1.40;;
78508;SDS011;67802;50.846;7.958;2023-04-25T12:53:53;3.47;;;1.10;;
78508;SDS011;67802;50.846;7.958;2023-04-25T12:56:19;2.85;;;0.90;;
78508;SDS011;67802;50.846;7.958;2023-04-25T12:58:44;2.17;;;1.00;;
78508;SDS011;67802;50.846;7.958;2023-04-25T13:01:10;3.88;;;1.05;;
78508;SDS011;67802;50.846;7.958;2023-04-25T13:03:37;2.53;;;0.90;;
78508;SDS011;67802;50.846;7.958;2023-04-25T13:06:02;2.42;;;0.98;;
78508;SDS011;67802;50.846;7.958;2023-04-25T13:08:28;3.58;;;1.02;;
78508;SDS011;67802;50.846;7.958;2023-04-25T13:10:53;2.80;;;1.10;;
78508;SDS011;67802;50.846;7.958;2023-04-25T13:13:18;3.43;;;1.20;;
78508;SDS011;67802;50.846;7.958;2023-04-25T13:15:44;2.67;;;1.00;;
78508;SDS011;67802;50.846;7.958;2023-04-25T13:18:09;2.63;;;1.00;;
78508;SDS011;67802;50.846;7.958;2023-04-25T13:20:34;2.78;;;0.95;;
78508;SDS011;67802;50.846;7.958;2023-04-25T13:23:00;4.30;;;1.23;;
78508;SDS011;67802;50.846;7.958;2023-04-25T13:25:25;2.03;;;0.95;;
78508;SDS011;67802;50.846;7.958;2023-04-25T13:27:51;3.50;;;0.90;;
78508;SDS011;67802;50.846;7.958;2023-04-25T13:30:16;1.98;;;0.90;;
78508;SDS011;67802;50.846;7.958;2023-04-25T13:32:41;2.25;;;0.90;;
78508;SDS011;67802;50.846;7.958;2023-04-25T13:35:07;3.00;;;1.02;;
78508;SDS011;67802;50.846;7.958;2023-04-25T13:37:37;2.08;;;0.93;;
78508;SDS011;67802;50.846;7.958;2023-04-25T13:40:05;2.85;;;0.90;;
78508;SDS011;67802;50.846;7.958;2023-04-25T13:42:33;4.00;;;1.30;;
78508;SDS011;67802;50.846;7.958;2023-04-25T13:44:59;4.28;;;1.10;;
78508;SDS011;67802;50.846;7.958;2023-04-25T13:47:25;2.45;;;1.00;;
78508;SDS011;67802;50.846;7.958;2023-04-25T13:49:51;2.63;;;1.00;;
78508;SDS011;67802;50.846;7.958;2023-04-25T13:52:16;6.43;;;1.20;;
78508;SDS011;67802;50.846;7.958;2023-04-25T13:54:42;2.75;;;1.02;;
78508;SDS011;67802;50.846;7.958;2023-04-25T13:57:07;3.30;;;1.20;;
78508;SDS011;67802;50.846;7.958;2023-04-25T13:59:33;4.28;;;1.00;;
78508;SDS011;67802;50.846;7.958;2023-04-25T14:01:58;4.43;;;1.20;;
78508;SDS011;67802;50.846;7.958;2023-04-25T14:04:24;3.50;;;1.00;;
78508;SDS011;67802;50.846;7.958;2023-04-25T14:06:50;3.13;;;1.15;;
78508;SDS011;67802;50.846;7.958;2023-04-25T14:09:16;5.68;;;1.23;;
78508;SDS011;67802;50.846;7.958;2023-04-25T14:11:41;3.60;;;1.10;;
78508;SDS011;67802;50.846;7.958;2023-04-25T14:14:07;3.72;;;1.30;;
78508;SDS011;67802;50.846;7.958;2023-04-25T14:16:32;3.70;;;1.10;;
78508;SDS011;67802;50.846;7.958;2023-04-25T14:18:58;2.83;;;1.10;;
78508;SDS011;67802;50.846;7.958;2023-04-25T14:21:23;2.92;;;0.98;;
78508;SDS011;67802;50.846;7.958;2023-04-25T14:23:49;3.53;;;1.05;;
78508;SDS011;67802;50.846;7.958;2023-04-25T14:26:14;2.80;;;1.08;;
78508;SDS011;67802;50.846;7.958;2023-04-25T14:28:41;3.75;;;1.10;;
78508;SDS011;67802;50.846;7.958;2023-04-25T14:31:06;2.05;;;0.90;;
78508;SDS011;67802;50.846;7.958;2023-04-25T14:33:32;5.03;;;1.10;;
78508;SDS011;67802;50.846;7.958;2023-04-25T14:35:57;3.37;;;1.03;;
78508;SDS011;67802;50.846;7.958;2023-04-25T14:38:22;3.90;;;1.10;;
78508;SDS011;67802;50.846;7.958;2023-04-25T14:40:50;3.92;;;1.10;;
78508;SDS011;67802;50.846;7.958;2023-04-25T14:43:16;3.80;;;1.00;;
78508;SDS011;67802;50.846;7.958;2023-04-25T14:45:41;2.88;;;1.00;;
78508;SDS011;67802;50.846;7.958;2023-04-25T14:48:07;3.13;;;1.20;;
78508;SDS011;67802;50.846;7.958;2023-04-25T14:50:32;2.40;;;0.90;;
78508;SDS011;67802;50.846;7.958;2023-04-25T14:52:58;3.75;;;1.05;;